createdAt,value
2018-12-02T00:00:24.090Z,8.71
2018-12-02T00:01:24.031Z,8.61
2018-12-02T00:02:24.023Z,8.65
2018-12-02T00:03:24.008Z,8.54
2018-12-02T00:04:23.996Z,8.46
2018-12-02T00:05:24.021Z,8.49
2018-12-02T00:06:23.973Z,8.47
2018-12-02T00:07:23.965Z,8.46
2018-12-02T00:08:23.964Z,8.40
2018-12-02T00:09:23.947Z,8.43
2018-12-02T00:10:23.952Z,8.49
2018-12-02T00:11:23.937Z,8.60
2018-12-02T00:12:23.910Z,8.47
2018-12-02T00:13:23.899Z,8.61
2018-12-02T00:14:23.888Z,8.64
2018-12-02T00:15:23.913Z,8.70
2018-12-02T00:16:23.869Z,8.70
2018-12-02T00:17:23.862Z,8.67
2018-12-02T00:18:23.847Z,8.70
2018-12-02T00:19:23.837Z,8.76
2018-12-02T00:20:23.825Z,8.76
2018-12-02T00:21:23.830Z,8.76
2018-12-02T00:22:23.807Z,8.82
2018-12-02T00:23:23.800Z,8.85
2018-12-02T00:24:23.787Z,8.93
2018-12-02T00:25:23.782Z,9.12
2018-12-02T00:26:23.802Z,9.26
2018-12-02T00:27:23.757Z,9.37
2018-12-02T00:28:23.741Z,9.48
2018-12-02T00:29:23.746Z,9.63
2018-12-02T00:30:23.724Z,9.74
2018-12-02T00:31:23.766Z,9.86
2018-12-02T00:32:23.703Z,9.88
2018-12-02T00:33:23.687Z,9.92
2018-12-02T00:34:23.676Z,10.02
2018-12-02T00:35:23.668Z,10.04
2018-12-02T00:36:23.674Z,10.10
2018-12-02T00:37:23.658Z,10.11
2018-12-02T00:38:23.634Z,10.10
2018-12-02T00:39:23.626Z,10.13
2018-12-02T00:40:23.612Z,10.02
2018-12-02T00:41:23.617Z,9.99
2018-12-02T00:42:23.594Z,9.96
2018-12-02T00:43:23.581Z,9.91
2018-12-02T00:44:23.571Z,9.89
2018-12-02T00:45:23.560Z,9.77
2018-12-02T00:46:23.563Z,9.70
2018-12-02T00:47:23.540Z,9.60
2018-12-02T00:48:23.538Z,9.58
2018-12-02T00:49:23.523Z,9.45
2018-12-02T00:50:23.507Z,9.45
2018-12-02T00:51:23.511Z,9.45
2018-12-02T00:52:23.486Z,9.31
2018-12-02T00:53:23.475Z,9.31
2018-12-02T00:54:23.471Z,9.45
2018-12-02T00:55:23.457Z,9.42
2018-12-02T00:56:24.201Z,9.44
2018-12-02T00:57:23.433Z,9.31
2018-12-02T00:58:23.422Z,9.35
2018-12-02T00:59:23.414Z,9.22
2018-12-02T01:00:23.405Z,9.23
2018-12-02T01:01:23.411Z,9.32
2018-12-02T01:02:23.380Z,9.26
2018-12-02T01:03:23.372Z,9.34
2018-12-02T01:04:23.361Z,9.40
2018-12-02T01:05:23.351Z,9.35
2018-12-02T01:06:23.356Z,9.30
2018-12-02T01:07:23.334Z,9.23
2018-12-02T01:08:23.320Z,9.26
2018-12-02T01:09:23.308Z,9.22
2018-12-02T01:10:23.302Z,9.22
2018-12-02T01:11:23.300Z,9.22
2018-12-02T01:12:23.274Z,9.22
2018-12-02T01:13:23.267Z,9.10
2018-12-02T01:14:23.254Z,9.04
2018-12-02T01:15:23.250Z,8.98
2018-12-02T01:16:23.246Z,9.00
2018-12-02T01:17:23.222Z,8.94
2018-12-02T01:18:23.213Z,9.00
2018-12-02T01:19:23.201Z,8.86
2018-12-02T01:20:23.190Z,8.86
2018-12-02T01:21:23.312Z,8.89
2018-12-02T01:22:23.169Z,8.94
2018-12-02T01:23:23.158Z,8.86
2018-12-02T01:24:23.149Z,8.86
2018-12-02T01:25:23.136Z,8.89
2018-12-02T01:26:23.129Z,8.83
2018-12-02T01:27:23.137Z,8.88
2018-12-02T01:28:23.107Z,8.82
2018-12-02T01:29:23.097Z,8.83
2018-12-02T01:30:23.083Z,8.91
2018-12-02T01:31:23.075Z,8.94
2018-12-02T01:32:23.076Z,8.94
2018-12-02T01:33:23.056Z,8.91
2018-12-02T01:34:23.040Z,8.91
2018-12-02T01:35:23.031Z,8.83
2018-12-02T01:36:23.020Z,8.86
2018-12-02T01:37:23.022Z,8.76
2018-12-02T01:38:22.999Z,8.76
2018-12-02T01:39:22.999Z,8.68
2018-12-02T01:40:22.978Z,8.67
2018-12-02T01:41:22.967Z,8.58
2018-12-02T01:42:22.970Z,8.50
2018-12-02T01:43:22.949Z,8.61
2018-12-02T01:44:22.935Z,8.60
2018-12-02T01:45:22.932Z,8.57
2018-12-02T01:46:22.916Z,8.57
2018-12-02T01:47:22.917Z,8.52
2018-12-02T01:48:22.893Z,8.52
2018-12-02T01:49:22.886Z,8.46
2018-12-02T01:50:22.874Z,8.46
2018-12-02T01:51:22.870Z,8.42
2018-12-02T01:52:22.869Z,8.42
2018-12-02T01:53:22.841Z,8.39
2018-12-02T01:54:22.833Z,8.40
2018-12-02T01:55:22.820Z,8.46
2018-12-02T01:56:22.809Z,8.31
2018-12-02T01:57:22.813Z,8.28
2018-12-02T01:58:22.789Z,8.32
2018-12-02T01:59:22.786Z,8.32
2018-12-02T02:00:22.797Z,8.36
2018-12-02T02:01:22.762Z,8.36
2018-12-02T02:02:22.758Z,8.43
2018-12-02T02:03:22.737Z,8.43
2018-12-02T02:04:22.727Z,8.52
2018-12-02T02:05:22.718Z,8.46
2018-12-02T02:06:22.708Z,8.49
2018-12-02T02:07:22.705Z,8.54
2018-12-02T02:08:22.680Z,8.54
2018-12-02T02:09:22.683Z,8.55
2018-12-02T02:10:22.660Z,8.54
2018-12-02T02:11:22.653Z,8.54
2018-12-02T02:12:22.652Z,8.55
2018-12-02T02:13:22.631Z,8.57
2018-12-02T02:14:22.627Z,8.49
2018-12-02T02:15:22.607Z,8.54
2018-12-02T02:16:22.597Z,8.47
2018-12-02T02:17:22.599Z,8.49
2018-12-02T02:18:22.574Z,8.46
2018-12-02T02:19:22.566Z,8.54
2018-12-02T02:20:22.565Z,8.50
2018-12-02T02:21:22.544Z,8.50
2018-12-02T02:22:22.546Z,8.46
2018-12-02T02:23:22.526Z,8.54
2018-12-02T02:24:22.512Z,8.47
2018-12-02T02:25:22.501Z,8.54
2018-12-02T02:26:22.501Z,8.49
2018-12-02T02:27:22.509Z,8.50
2018-12-02T02:28:22.470Z,8.52
2018-12-02T02:29:22.458Z,8.46
2018-12-02T02:30:22.448Z,8.47
2018-12-02T02:31:22.438Z,8.45
2018-12-02T02:32:22.436Z,8.52
2018-12-02T02:33:22.431Z,8.52
2018-12-02T02:34:22.407Z,8.46
2018-12-02T02:35:22.400Z,8.47
2018-12-02T02:36:22.387Z,8.55
2018-12-02T02:37:22.377Z,8.58
2018-12-02T02:38:22.385Z,8.58
2018-12-02T02:39:22.353Z,8.54
2018-12-02T02:40:22.345Z,8.49
2018-12-02T02:41:22.333Z,8.49
2018-12-02T02:42:22.349Z,8.50
2018-12-02T02:43:22.311Z,8.54
2018-12-02T02:44:22.306Z,8.57
2018-12-02T02:45:22.298Z,8.52
2018-12-02T02:46:22.280Z,8.49
2018-12-02T02:47:22.269Z,8.49
2018-12-02T02:48:22.274Z,8.42
2018-12-02T02:49:22.247Z,8.40
2018-12-02T02:50:22.247Z,8.37
2018-12-02T02:51:22.228Z,8.34
2018-12-02T02:52:22.218Z,8.32
2018-12-02T02:53:22.222Z,8.29
2018-12-02T02:54:22.195Z,8.36
2018-12-02T02:55:22.187Z,8.34
2018-12-02T02:56:22.175Z,8.29
2018-12-02T02:57:22.169Z,8.32
2018-12-02T02:58:22.166Z,8.49
2018-12-02T02:59:22.146Z,8.54
2018-12-02T03:00:22.135Z,8.55
2018-12-02T03:01:22.131Z,8.50
2018-12-02T03:02:22.110Z,8.65
2018-12-02T03:03:22.126Z,8.67
2018-12-02T03:04:22.088Z,8.67
2018-12-02T03:05:22.078Z,8.67
2018-12-02T03:06:22.068Z,8.75
2018-12-02T03:07:22.058Z,8.61
2018-12-02T03:08:22.059Z,8.63
2018-12-02T03:09:22.045Z,8.54
2018-12-02T03:10:22.029Z,8.54
2018-12-02T03:11:22.019Z,8.57
2018-12-02T03:12:22.004Z,8.61
2018-12-02T03:13:22.009Z,8.50
2018-12-02T03:14:21.982Z,8.55
2018-12-02T03:15:21.973Z,8.54
2018-12-02T03:16:21.961Z,8.50
2018-12-02T03:17:21.956Z,8.61
2018-12-02T03:18:21.960Z,8.58
2018-12-02T03:19:21.932Z,8.54
2018-12-02T03:20:21.924Z,8.50
2018-12-02T03:21:21.908Z,8.57
2018-12-02T03:22:21.897Z,8.65
2018-12-02T03:23:21.900Z,8.64
2018-12-02T03:24:21.878Z,8.68
2018-12-02T03:25:21.865Z,8.64
2018-12-02T03:26:21.855Z,8.64
2018-12-02T03:27:21.843Z,8.67
2018-12-02T03:28:21.846Z,8.64
2018-12-02T03:29:21.827Z,8.63
2018-12-02T03:30:21.819Z,8.65
2018-12-02T03:31:21.809Z,8.58
2018-12-02T03:32:21.790Z,8.61
2018-12-02T03:33:21.796Z,8.63
2018-12-02T03:34:21.769Z,8.67
2018-12-02T03:35:21.760Z,8.64
2018-12-02T03:36:21.751Z,8.61
2018-12-02T03:37:21.738Z,8.57
2018-12-02T03:38:21.742Z,8.58
2018-12-02T03:39:21.717Z,8.70
2018-12-02T03:40:21.706Z,8.61
2018-12-02T03:41:21.696Z,8.70
2018-12-02T03:42:21.694Z,8.68
2018-12-02T03:43:21.690Z,8.70
2018-12-02T03:44:21.666Z,8.64
2018-12-02T03:45:21.654Z,8.68
2018-12-02T03:46:21.643Z,8.68
2018-12-02T03:47:21.631Z,8.73
2018-12-02T03:48:21.639Z,8.64
2018-12-02T03:49:21.617Z,8.65
2018-12-02T03:50:21.605Z,8.61
2018-12-02T03:51:21.593Z,8.49
2018-12-02T03:52:21.582Z,8.40
2018-12-02T03:53:21.754Z,8.40
2018-12-02T03:54:21.559Z,8.32
2018-12-02T03:55:21.548Z,8.28
2018-12-02T03:56:21.540Z,8.24
2018-12-02T03:57:21.533Z,8.32
2018-12-02T03:58:21.516Z,8.17
2018-12-02T03:59:21.524Z,8.07
2018-12-02T04:00:21.501Z,8.06
2018-12-02T04:01:21.485Z,8.03
2018-12-02T04:02:21.475Z,8.03
2018-12-02T04:03:21.472Z,8.06
2018-12-02T04:04:21.471Z,8.02
2018-12-02T04:05:21.456Z,7.95
2018-12-02T04:06:21.435Z,7.92
2018-12-02T04:07:21.421Z,7.96
2018-12-02T04:08:21.489Z,7.82
2018-12-02T04:09:21.418Z,7.82
2018-12-02T04:10:21.389Z,7.76
2018-12-02T04:11:21.379Z,7.74
2018-12-02T04:12:21.368Z,7.70
2018-12-02T04:13:21.358Z,7.77
2018-12-02T04:14:21.363Z,7.76
2018-12-02T04:15:21.364Z,7.71
2018-12-02T04:16:21.329Z,7.66
2018-12-02T04:17:21.315Z,7.67
2018-12-02T04:18:21.304Z,7.55
2018-12-02T04:19:21.313Z,7.58
2018-12-02T04:20:21.283Z,7.52
2018-12-02T04:21:21.281Z,7.45
2018-12-02T04:22:21.267Z,7.39
2018-12-02T04:23:21.256Z,7.48
2018-12-02T04:24:21.261Z,7.51
2018-12-02T04:25:21.236Z,7.41
2018-12-02T04:26:21.227Z,7.42
2018-12-02T04:27:21.230Z,7.48
2018-12-02T04:28:21.216Z,7.55
2018-12-02T04:29:21.216Z,7.54
2018-12-02T04:30:21.179Z,7.50
2018-12-02T04:31:21.180Z,7.50
2018-12-02T04:32:21.174Z,7.41
2018-12-02T04:33:21.150Z,7.51
2018-12-02T04:34:21.153Z,7.44
2018-12-02T04:35:21.132Z,7.47
2018-12-02T04:36:21.115Z,7.42
2018-12-02T04:37:21.103Z,7.39
2018-12-02T04:38:21.105Z,7.42
2018-12-02T04:39:21.101Z,7.42
2018-12-02T04:40:21.070Z,7.39
2018-12-02T04:41:21.060Z,7.41
2018-12-02T04:42:21.050Z,7.39
2018-12-02T04:43:21.049Z,7.37
2018-12-02T04:44:21.044Z,7.34
2018-12-02T04:45:21.017Z,7.37
2018-12-02T04:46:21.007Z,7.36
2018-12-02T04:47:20.996Z,7.34
2018-12-02T04:48:20.990Z,7.37
2018-12-02T04:49:20.994Z,7.32
2018-12-02T04:50:20.965Z,7.37
2018-12-02T04:51:20.955Z,7.37
2018-12-02T04:52:20.945Z,7.23
2018-12-02T04:53:20.932Z,7.29
2018-12-02T04:54:20.940Z,7.30
2018-12-02T04:55:20.913Z,7.36
2018-12-02T04:56:20.901Z,7.39
2018-12-02T04:57:20.893Z,7.34
2018-12-02T04:58:20.879Z,7.34
2018-12-02T04:59:20.889Z,7.41
2018-12-02T05:00:20.860Z,7.33
2018-12-02T05:01:20.858Z,7.37
2018-12-02T05:02:20.837Z,7.33
2018-12-02T05:03:20.826Z,7.37
2018-12-02T05:04:20.838Z,7.39
2018-12-02T05:05:20.804Z,7.34
2018-12-02T05:06:20.795Z,7.42
2018-12-02T05:07:20.795Z,7.44
2018-12-02T05:08:20.774Z,7.39
2018-12-02T05:09:20.770Z,7.37
2018-12-02T05:10:20.766Z,7.33
2018-12-02T05:11:20.741Z,7.33
2018-12-02T05:12:20.730Z,7.42
2018-12-02T05:13:20.733Z,7.44
2018-12-02T05:14:20.709Z,7.34
2018-12-02T05:15:20.727Z,7.37
2018-12-02T05:16:20.688Z,7.33
2018-12-02T05:17:20.677Z,7.39
2018-12-02T05:18:20.666Z,7.37
2018-12-02T05:19:20.656Z,7.37
2018-12-02T05:20:20.664Z,7.41
2018-12-02T05:21:20.637Z,7.48
2018-12-02T05:22:20.622Z,7.41
2018-12-02T05:23:20.614Z,7.33
2018-12-02T05:24:20.605Z,7.42
2018-12-02T05:25:20.605Z,7.39
2018-12-02T05:26:20.585Z,7.44
2018-12-02T05:27:20.578Z,7.37
2018-12-02T05:28:20.560Z,7.36
2018-12-02T05:29:20.552Z,7.36
2018-12-02T05:30:20.556Z,7.42
2018-12-02T05:31:20.528Z,7.33
2018-12-02T05:32:20.517Z,7.33
2018-12-02T05:33:20.510Z,7.27
2018-12-02T05:34:20.496Z,7.26
2018-12-02T05:35:20.500Z,7.26
2018-12-02T05:36:20.473Z,7.21
2018-12-02T05:37:20.463Z,7.30
2018-12-02T05:38:20.452Z,7.18
2018-12-02T05:39:20.445Z,7.29
2018-12-02T05:40:20.450Z,7.19
2018-12-02T05:41:20.424Z,7.14
2018-12-02T05:42:20.417Z,7.09
2018-12-02T05:43:20.398Z,7.15
2018-12-02T05:44:20.389Z,7.11
2018-12-02T05:45:20.396Z,7.15
2018-12-02T05:46:20.369Z,7.16
2018-12-02T05:47:20.358Z,7.14
2018-12-02T05:48:20.354Z,7.08
2018-12-02T05:49:20.345Z,7.09
2018-12-02T05:50:20.340Z,7.09
2018-12-02T05:51:20.313Z,7.14
2018-12-02T05:52:20.302Z,7.11
2018-12-02T05:53:20.291Z,7.09
2018-12-02T05:54:20.283Z,7.18
2018-12-02T05:55:20.300Z,7.04
2018-12-02T05:56:20.260Z,7.05
2018-12-02T05:57:20.249Z,7.07
2018-12-02T05:58:20.239Z,7.12
2018-12-02T05:59:20.229Z,7.01
2018-12-02T06:00:20.233Z,7.00
2018-12-02T06:01:20.216Z,7.05
2018-12-02T06:02:20.197Z,7.04
2018-12-02T06:03:20.186Z,7.00
2018-12-02T06:04:20.175Z,7.00
2018-12-02T06:05:20.178Z,7.11
2018-12-02T06:06:20.153Z,7.15
2018-12-02T06:07:20.195Z,7.12
2018-12-02T06:08:20.132Z,7.09
2018-12-02T06:09:20.123Z,7.16
2018-12-02T06:10:20.135Z,7.15
2018-12-02T06:11:20.101Z,7.16
2018-12-02T06:12:20.089Z,7.14
2018-12-02T06:13:20.090Z,7.16
2018-12-02T06:14:20.071Z,7.12
2018-12-02T06:15:20.072Z,7.14
2018-12-02T06:16:20.046Z,7.16
2018-12-02T06:17:20.037Z,7.11
2018-12-02T06:18:20.026Z,7.16
2018-12-02T06:19:20.019Z,7.12
2018-12-02T06:20:20.039Z,7.16
2018-12-02T06:21:19.994Z,7.14
2018-12-02T06:22:19.985Z,7.15
2018-12-02T06:23:19.972Z,7.11
2018-12-02T06:24:19.961Z,7.12
2018-12-02T06:25:19.961Z,7.12
2018-12-02T06:26:19.958Z,7.16
2018-12-02T06:27:19.936Z,7.15
2018-12-02T06:28:19.920Z,7.09
2018-12-02T06:29:19.910Z,7.14
2018-12-02T06:30:19.958Z,7.14
2018-12-02T06:31:19.916Z,7.21
2018-12-02T06:32:19.876Z,7.19
2018-12-02T06:33:19.866Z,7.23
2018-12-02T06:34:19.854Z,7.27
2018-12-02T06:35:19.844Z,7.30
2018-12-02T06:36:19.852Z,7.27
2018-12-02T06:37:19.834Z,7.24
2018-12-02T06:38:19.811Z,7.29
2018-12-02T06:39:19.809Z,7.24
2018-12-02T06:40:19.790Z,7.27
2018-12-02T06:41:19.801Z,7.29
2018-12-02T06:42:19.769Z,7.26
2018-12-02T06:43:19.761Z,7.24
2018-12-02T06:44:19.748Z,7.29
2018-12-02T06:45:19.736Z,7.19
2018-12-02T06:46:19.744Z,7.24
2018-12-02T06:47:19.727Z,7.29
2018-12-02T06:48:19.706Z,7.29
2018-12-02T06:49:19.697Z,7.41
2018-12-02T06:50:19.684Z,7.41
2018-12-02T06:51:19.689Z,7.24
2018-12-02T06:52:19.663Z,7.32
2018-12-02T06:53:19.651Z,7.23
2018-12-02T06:54:19.640Z,7.26
2018-12-02T06:55:19.635Z,7.29
2018-12-02T06:56:19.633Z,7.24
2018-12-02T06:57:19.608Z,7.27
2018-12-02T06:58:19.597Z,7.26
2018-12-02T06:59:19.587Z,7.27
2018-12-02T07:00:19.629Z,7.32
2018-12-02T07:01:19.610Z,7.26
2018-12-02T07:02:19.556Z,7.24
2018-12-02T07:03:19.551Z,7.32
2018-12-02T07:04:19.540Z,7.21
2018-12-02T07:05:19.529Z,7.42
2018-12-02T07:06:19.512Z,7.39
2018-12-02T07:07:19.518Z,7.33
2018-12-02T07:08:19.492Z,7.33
2018-12-02T07:09:19.482Z,7.42
2018-12-02T07:10:19.471Z,7.42
2018-12-02T07:11:19.467Z,7.44
2018-12-02T07:12:19.463Z,7.37
2018-12-02T07:13:19.448Z,7.33
2018-12-02T07:14:19.426Z,7.34
2018-12-02T07:15:19.417Z,7.37
2018-12-02T07:16:19.406Z,7.47
2018-12-02T07:17:19.433Z,7.47
2018-12-02T07:18:19.388Z,7.45
2018-12-02T07:19:19.374Z,7.63
2018-12-02T07:20:19.363Z,8.10
2018-12-02T07:21:19.354Z,8.29
2018-12-02T07:22:19.341Z,8.57
2018-12-02T07:23:19.353Z,8.78
2018-12-02T07:24:19.321Z,9.19
2018-12-02T07:25:19.311Z,9.48
2018-12-02T07:26:19.303Z,9.59
2018-12-02T07:27:19.296Z,9.68
2018-12-02T07:28:19.293Z,9.89
2018-12-02T07:29:19.274Z,10.01
2018-12-02T07:30:24.890Z,10.16
2018-12-02T07:31:20.246Z,10.25
2018-12-02T07:32:19.239Z,10.39
2018-12-02T07:33:19.255Z,10.57
2018-12-02T07:34:19.216Z,10.66
2018-12-02T07:35:19.213Z,10.68
2018-12-02T07:36:19.193Z,10.81
2018-12-02T07:37:19.186Z,10.88
2018-12-02T07:38:19.172Z,10.84
2018-12-02T07:39:19.176Z,11.03
2018-12-02T07:40:19.152Z,11.16
2018-12-02T07:41:19.143Z,11.31
2018-12-02T07:42:19.132Z,11.48
2018-12-02T07:43:19.131Z,11.42
2018-12-02T07:44:19.123Z,11.59
2018-12-02T07:45:19.097Z,11.44
2018-12-02T07:46:19.087Z,11.42
2018-12-02T07:47:19.077Z,11.48
2018-12-02T07:48:19.065Z,11.66
2018-12-02T07:49:19.075Z,11.59
2018-12-02T07:50:19.052Z,11.63
2018-12-02T07:51:19.032Z,11.60
2018-12-02T07:52:19.026Z,11.88
2018-12-02T07:53:19.011Z,11.93
2018-12-02T07:54:19.016Z,11.77
2018-12-02T07:55:18.991Z,11.77
2018-12-02T07:56:18.981Z,11.88
2018-12-02T07:57:18.978Z,11.96
2018-12-02T07:58:18.963Z,11.93
2018-12-02T07:59:19.005Z,11.97
2018-12-02T08:00:18.948Z,12.07
2018-12-02T08:01:18.944Z,12.03
2018-12-02T08:02:18.934Z,12.00
2018-12-02T08:03:18.912Z,12.05
2018-12-02T08:04:18.900Z,12.11
2018-12-02T08:05:18.901Z,12.12
2018-12-02T08:06:18.875Z,12.12
2018-12-02T08:07:18.869Z,12.26
2018-12-02T08:08:18.873Z,12.31
2018-12-02T08:09:18.846Z,12.26
2018-12-02T08:10:18.844Z,12.22
2018-12-02T08:11:18.822Z,12.30
2018-12-02T08:12:18.820Z,12.26
2018-12-02T08:13:18.797Z,12.26
2018-12-02T08:14:18.789Z,12.30
2018-12-02T08:15:18.793Z,12.25
2018-12-02T08:16:18.768Z,12.22
2018-12-02T08:17:18.757Z,12.11
2018-12-02T08:18:18.745Z,12.01
2018-12-02T08:19:18.732Z,12.01
2018-12-02T08:20:18.737Z,11.98
2018-12-02T08:21:18.710Z,12.04
2018-12-02T08:22:18.700Z,11.97
2018-12-02T08:23:18.695Z,11.96
2018-12-02T08:24:18.685Z,12.01
2018-12-02T08:25:18.711Z,11.87
2018-12-02T08:26:18.670Z,11.77
2018-12-02T08:27:18.654Z,11.63
2018-12-02T08:28:18.659Z,11.56
2018-12-02T08:29:18.630Z,11.57
2018-12-02T08:30:18.628Z,11.59
2018-12-02T08:31:18.604Z,11.49
2018-12-02T08:32:18.596Z,11.38
2018-12-02T08:33:18.598Z,11.45
2018-12-02T08:34:18.570Z,11.36
2018-12-02T08:35:18.573Z,11.38
2018-12-02T08:36:18.569Z,11.30
2018-12-02T08:37:18.545Z,11.21
2018-12-02T08:38:18.550Z,11.24
2018-12-02T08:39:18.535Z,11.11
2018-12-02T08:40:18.528Z,11.09
2018-12-02T08:41:18.510Z,11.09
2018-12-02T08:42:18.484Z,11.11
2018-12-02T08:43:18.472Z,11.11
2018-12-02T08:44:18.467Z,11.12
2018-12-02T08:45:18.484Z,11.16
2018-12-02T08:46:18.456Z,11.11
2018-12-02T08:47:18.444Z,11.17
2018-12-02T08:48:18.420Z,11.09
2018-12-02T08:49:18.411Z,11.09
2018-12-02T08:50:18.396Z,11.16
2018-12-02T08:51:18.403Z,11.17
2018-12-02T08:52:18.384Z,11.17
2018-12-02T08:53:18.364Z,11.19
2018-12-02T08:54:18.355Z,11.27
2018-12-02T08:55:18.355Z,11.26
2018-12-02T08:56:18.347Z,11.26
2018-12-02T08:57:18.321Z,11.19
2018-12-02T08:58:18.312Z,11.30
2018-12-02T08:59:18.303Z,11.23
2018-12-02T09:00:18.298Z,11.30
2018-12-02T09:01:18.305Z,11.36
2018-12-02T09:02:18.273Z,11.33
2018-12-02T09:03:18.258Z,11.31
2018-12-02T09:04:18.247Z,11.28
2018-12-02T09:05:18.236Z,11.31
2018-12-02T09:06:18.238Z,11.33
2018-12-02T09:07:18.231Z,11.28
2018-12-02T09:08:18.205Z,11.28
2018-12-02T09:09:18.196Z,11.41
2018-12-02T09:10:18.181Z,11.36
2018-12-02T09:11:18.185Z,11.44
2018-12-02T09:12:18.162Z,11.45
2018-12-02T09:13:18.150Z,11.46
2018-12-02T09:14:18.139Z,11.41
2018-12-02T09:15:18.133Z,11.38
2018-12-02T09:16:18.132Z,11.45
2018-12-02T09:17:18.109Z,11.46
2018-12-02T09:18:18.096Z,11.49
2018-12-02T09:19:18.085Z,11.60
2018-12-02T09:20:18.075Z,11.60
2018-12-02T09:21:18.093Z,11.67
2018-12-02T09:22:18.057Z,11.60
2018-12-02T09:23:18.051Z,11.62
2018-12-02T09:24:18.041Z,11.63
2018-12-02T09:25:18.022Z,11.67
2018-12-02T09:26:18.009Z,11.70
2018-12-02T09:27:18.013Z,11.77
2018-12-02T09:28:17.989Z,11.74
2018-12-02T09:29:17.978Z,11.77
2018-12-02T09:30:17.967Z,11.85
2018-12-02T09:31:18.072Z,11.84
2018-12-02T09:32:17.963Z,11.88
2018-12-02T09:33:17.941Z,11.88
2018-12-02T09:34:17.930Z,12.01
2018-12-02T09:35:17.915Z,12.04
2018-12-02T09:36:17.902Z,12.03
2018-12-02T09:37:17.904Z,12.00
2018-12-02T09:38:17.883Z,12.11
2018-12-02T09:39:18.457Z,12.18
2018-12-02T09:40:17.869Z,12.11
2018-12-02T09:41:17.866Z,12.12
2018-12-02T09:42:17.854Z,12.11
2018-12-02T09:43:17.834Z,12.16
2018-12-02T09:44:17.819Z,12.16
2018-12-02T09:45:17.836Z,12.05
2018-12-02T09:46:17.810Z,12.05
2018-12-02T09:47:17.814Z,12.03
2018-12-02T09:48:17.802Z,12.11
2018-12-02T09:49:17.777Z,12.12
2018-12-02T09:50:17.753Z,12.19
2018-12-02T09:51:17.746Z,12.15
2018-12-02T09:52:17.758Z,12.12
2018-12-02T09:53:17.723Z,12.03
2018-12-02T09:54:23.230Z,11.97
2018-12-02T09:55:18.702Z,12.07
2018-12-02T09:56:17.695Z,12.07
2018-12-02T09:57:17.692Z,12.03
2018-12-02T09:58:17.670Z,11.96
2018-12-02T09:59:17.658Z,12.08
2018-12-02T10:00:17.648Z,12.13
2018-12-02T10:01:17.644Z,12.13
2018-12-02T10:02:17.648Z,12.07
2018-12-02T10:03:17.617Z,12.41
2018-12-02T10:04:17.603Z,12.43
2018-12-02T10:05:17.600Z,12.26
2018-12-02T10:06:17.582Z,12.23
2018-12-02T10:07:17.595Z,12.11
2018-12-02T10:08:17.560Z,12.18
2018-12-02T10:09:17.550Z,12.23
2018-12-02T10:10:22.486Z,12.22
2018-12-02T10:11:18.538Z,12.29
2018-12-02T10:12:17.537Z,12.26
2018-12-02T10:13:17.510Z,12.26
2018-12-02T10:14:17.509Z,12.13
2018-12-02T10:15:17.488Z,12.16
2018-12-02T10:16:17.480Z,12.16
2018-12-02T10:17:17.486Z,12.31
2018-12-02T10:18:17.456Z,12.29
2018-12-02T10:19:17.448Z,12.26
2018-12-02T10:20:17.434Z,12.25
2018-12-02T10:21:17.427Z,12.29
2018-12-02T10:22:17.427Z,12.40
2018-12-02T10:23:17.409Z,12.40
2018-12-02T10:24:17.390Z,12.37
2018-12-02T10:25:17.385Z,12.38
2018-12-02T10:26:17.370Z,12.38
2018-12-02T10:27:17.371Z,12.33
2018-12-02T10:28:17.350Z,12.43
2018-12-02T10:29:17.362Z,12.40
2018-12-02T10:30:17.331Z,12.36
2018-12-02T10:31:17.321Z,12.38
2018-12-02T10:32:17.322Z,12.38
2018-12-02T10:33:17.317Z,12.46
2018-12-02T10:34:17.303Z,12.49
2018-12-02T10:35:17.292Z,12.59
2018-12-02T10:36:17.275Z,12.55
2018-12-02T10:37:17.289Z,12.61
2018-12-02T10:38:17.259Z,12.59
2018-12-02T10:39:17.251Z,12.69
2018-12-02T10:40:17.231Z,12.66
2018-12-02T10:41:17.227Z,12.67
2018-12-02T10:42:17.216Z,12.71
2018-12-02T10:43:17.198Z,12.73
2018-12-02T10:44:17.190Z,12.71
2018-12-02T10:45:17.181Z,12.71
2018-12-02T10:46:17.159Z,12.76
2018-12-02T10:47:17.169Z,12.74
2018-12-02T10:48:17.134Z,12.76
2018-12-02T10:49:17.128Z,12.74
2018-12-02T10:50:17.112Z,12.74
2018-12-02T10:51:17.112Z,12.77
2018-12-02T10:52:17.122Z,12.69
2018-12-02T10:53:17.101Z,12.67
2018-12-02T10:54:17.076Z,12.71
2018-12-02T10:55:17.070Z,12.77
2018-12-02T10:56:17.070Z,12.70
2018-12-02T10:57:17.056Z,12.69
2018-12-02T10:58:17.028Z,12.71
2018-12-02T10:59:17.024Z,12.67
2018-12-02T11:00:17.023Z,12.73
2018-12-02T11:01:17.023Z,12.70
2018-12-02T11:02:16.997Z,12.67
2018-12-02T11:03:16.969Z,12.67
2018-12-02T11:04:16.964Z,12.74
2018-12-02T11:05:16.950Z,12.70
2018-12-02T11:06:16.944Z,12.67
2018-12-02T11:07:16.948Z,12.66
2018-12-02T11:08:16.925Z,12.73
2018-12-02T11:09:16.904Z,12.70
2018-12-02T11:10:16.893Z,12.70
2018-12-02T11:11:16.890Z,12.58
2018-12-02T11:12:16.899Z,12.62
2018-12-02T11:13:16.892Z,12.66
2018-12-02T11:14:16.859Z,12.58
2018-12-02T11:15:16.847Z,12.55
2018-12-02T11:16:16.831Z,12.55
2018-12-02T11:17:16.847Z,12.56
2018-12-02T11:18:16.814Z,12.58
2018-12-02T11:19:16.795Z,12.59
2018-12-02T11:20:16.791Z,12.56
2018-12-02T11:21:16.777Z,12.56
2018-12-02T11:22:16.770Z,12.58
2018-12-02T11:23:16.766Z,12.70
2018-12-02T11:24:16.742Z,12.71
2018-12-02T11:25:16.740Z,12.70
2018-12-02T11:26:16.721Z,12.69
2018-12-02T11:27:16.709Z,12.71
2018-12-02T11:28:16.715Z,12.74
2018-12-02T11:29:16.690Z,12.80
2018-12-02T11:30:16.682Z,12.71
2018-12-02T11:31:16.668Z,12.76
2018-12-02T11:32:16.660Z,12.66
2018-12-02T11:33:16.664Z,12.76
2018-12-02T11:34:16.637Z,12.70
2018-12-02T11:35:16.624Z,12.70
2018-12-02T11:36:16.613Z,12.76
2018-12-02T11:37:16.602Z,12.76
2018-12-02T11:38:16.605Z,12.76
2018-12-02T11:39:16.579Z,12.71
2018-12-02T11:40:16.577Z,12.74
2018-12-02T11:41:17.368Z,12.89
2018-12-02T11:42:16.547Z,13.04
2018-12-02T11:43:16.550Z,12.98
2018-12-02T11:44:16.525Z,13.01
2018-12-02T11:45:16.517Z,13.09
2018-12-02T11:46:16.516Z,13.10
2018-12-02T11:47:16.499Z,13.13
2018-12-02T11:48:16.495Z,13.10
2018-12-02T11:49:16.492Z,13.14
2018-12-02T11:50:16.461Z,13.07
2018-12-02T11:51:16.452Z,13.10
2018-12-02T11:52:16.442Z,13.09
2018-12-02T11:53:16.441Z,13.06
2018-12-02T11:54:16.417Z,12.96
2018-12-02T11:55:16.419Z,13.10
2018-12-02T11:56:16.404Z,13.06
2018-12-02T11:57:16.390Z,13.04
2018-12-02T11:58:16.400Z,13.10
2018-12-02T11:59:16.362Z,12.92
2018-12-02T12:00:16.358Z,13.07
2018-12-02T12:01:16.341Z,13.07
2018-12-02T12:02:16.337Z,13.04
2018-12-02T12:03:16.338Z,12.99
2018-12-02T12:04:16.313Z,13.06
2018-12-02T12:05:16.299Z,13.06
2018-12-02T12:06:16.287Z,12.99
2018-12-02T12:07:16.279Z,12.96
2018-12-02T12:08:16.281Z,12.95
2018-12-02T12:09:16.254Z,13.01
2018-12-02T12:10:16.247Z,12.96
2018-12-02T12:11:16.232Z,13.09
2018-12-02T12:12:16.221Z,12.95
2018-12-02T12:13:16.234Z,12.94
2018-12-02T12:14:16.200Z,12.92
2018-12-02T12:15:16.189Z,13.01
2018-12-02T12:16:16.178Z,13.03
2018-12-02T12:17:16.170Z,12.96
2018-12-02T12:18:16.172Z,13.01
2018-12-02T12:19:16.147Z,13.06
2018-12-02T12:20:16.145Z,12.98
2018-12-02T12:21:16.127Z,12.98
2018-12-02T12:22:16.152Z,12.96
2018-12-02T12:23:16.142Z,12.96
2018-12-02T12:24:16.098Z,12.85
2018-12-02T12:25:16.080Z,12.91
2018-12-02T12:26:16.073Z,12.74
2018-12-02T12:27:16.058Z,12.73
2018-12-02T12:28:16.070Z,12.77
2018-12-02T12:29:16.041Z,12.81
2018-12-02T12:30:16.025Z,12.87
2018-12-02T12:31:16.023Z,12.91
2018-12-02T12:32:16.008Z,12.84
2018-12-02T12:33:16.041Z,12.94
2018-12-02T12:34:16.005Z,12.89
2018-12-02T12:35:15.992Z,12.87
2018-12-02T12:36:15.972Z,12.88
2018-12-02T12:37:15.956Z,12.95
2018-12-02T12:38:15.956Z,12.87
2018-12-02T12:39:15.936Z,12.95
2018-12-02T12:40:15.917Z,12.98
2018-12-02T12:41:15.912Z,12.94
2018-12-02T12:42:15.897Z,12.99
2018-12-02T12:43:15.954Z,12.99
2018-12-02T12:44:15.877Z,13.03
2018-12-02T12:45:15.874Z,12.99
2018-12-02T12:46:15.854Z,12.98
2018-12-02T12:47:15.841Z,12.94
2018-12-02T12:48:15.835Z,12.92
2018-12-02T12:49:15.841Z,12.92
2018-12-02T12:50:15.812Z,12.91
2018-12-02T12:51:15.805Z,12.94
2018-12-02T12:52:15.796Z,13.01
2018-12-02T12:53:15.781Z,12.98
2018-12-02T12:54:15.789Z,12.95
2018-12-02T12:55:15.753Z,13.03
2018-12-02T12:56:15.746Z,13.03
2018-12-02T12:57:15.735Z,12.92
2018-12-02T12:58:15.726Z,12.98
2018-12-02T12:59:15.723Z,13.09
2018-12-02T13:00:15.699Z,13.09
2018-12-02T13:01:15.690Z,13.21
2018-12-02T13:02:15.678Z,13.13
2018-12-02T13:03:15.974Z,13.21
2018-12-02T13:04:15.661Z,13.21
2018-12-02T13:05:15.646Z,13.27
2018-12-02T13:06:15.635Z,13.25